Detall de PIREP

Printer-friendly versionPDF version

[2012/11/03 09:44:00]
Flight IATA:CT3404
Pilot Number:012
Company ICAO:CAT
Aircraft Type:A343/E
PAX:295
Departing Airport: LEBL
Destination Airport: GCLP
Alternate Airport:GCXO
Online: VATSIM
Route:LOTOS UM985 YES UM985 MGA UN869 RUSIK
Flight Level:F390
No Slew and time accel
No pause
Crash detect
Detect pilot in Cockpit between each 30 and 45 minutes
09:44 Zero fuel Weight: 324901 Lbs, Fuel Weight: 65330 Lbs
09:44 VATSIM:LEBL 030900Z 31005KT 280V350 9999 FEW025 16/10 Q1010 NOSIG
09:44 VATSIM:GCLP 030900Z VRB02KT 9999 FEW040 28/18 Q1016 NOSIG
09:44 VOICE CATALONIAN
09:45 Parking Brakes off
09:51 Take-off
09:51 Take off Weight: 388914 Lbs
09:51 Wind: 332º @ 007 Knots Heading: 247º
09:51 POS N41º 17´ 07´´ E002º 05´ 00´´
09:51 Gear Up: 186 Knots
09:51 Flaps:2 at 186 Knots
09:51 Flaps:1 at 199 Knots
09:51 Flaps:0 at 210 Knots
10:06 Wind:261º@104 Knots Heading: 234º Ground Speed: 366 Knots Altitude 36358 ft
10:07 TOC
10:07 Fuel Weight: 57544 Lb
10:21 Wind:262º@118 Knots Heading: 239º Ground Speed: 363 Knots Altitude 38943 ft
10:36 Wind:262º@102 Knots Heading: 238º Ground Speed: 377 Knots Altitude 38950 ft
10:51 Wind:259º@094 Knots Heading: 231º Ground Speed: 389 Knots Altitude 39038 ft
11:06 Wind:247º@087 Knots Heading: 218º Ground Speed: 392 Knots Altitude 41003 ft
11:21 Wind:248º@076 Knots Heading: 221º Ground Speed: 401 Knots Altitude 41076 ft
11:36 Wind:243º@064 Knots Heading: 217º Ground Speed: 410 Knots Altitude 41046 ft
11:51 Wind:245º@058 Knots Heading: 213º Ground Speed: 417 Knots Altitude 41161 ft
12:06 Wind:245º@050 Knots Heading: 240º Ground Speed: 417 Knots Altitude 41105 ft
12:21 Wind:239º@054 Knots Heading: 243º Ground Speed: 412 Knots Altitude 41036 ft
12:36 Wind:227º@055 Knots Heading: 241º Ground Speed: 410Knots Altitude 40800 ft
12:36 TOD
12:36 Fuel Weight: 29046 Lb
12:51 Wind:222º@044 Knots Heading: 251º Ground Speed: 284 Knots Altitude 12388 ft
13:06 Wind:091º@011 Knots Heading: 248º Ground Speed: 235 Knots Altitude 3779 ft
13:07 Flaps:1 at 213 Knots
13:08 Flaps:3 at 194 Knots
13:08 Flaps:4 at 164 Knots
13:08 Flaps:5 at 165 Knots
13:10 Gear Down: 140 Knots
13:14 TouchDown:Rate -91 ft/min Speed: 134 Knots
13:14 VATSIM:GCLP 031230Z 03011KT 9999 FEW040 26/21 Q1016 NOSIG
13:14 Land
13:14 Wind:038º@011 Knots
13:14 Heading: 022º
13:14 Flight Duration: 03:23
13:14 Landing Weight: 349994 Lbs
13:14 POS N27º 55´ 57´´ W015º 23´ 10´´
13:16 Parking brakes on
13:16 Block to Block Duration: 03:31
13:16 Final Fuel: 24958 Lbls
13:16 Spent Fuel: 40372 Lbls
13:16 Flight Length: 1249 NM
13:16 TOD Land Length: 167 NM

Exportar CSV

Powered by Drupal - Modified by Danger4k